sensor_id;sensor_type;location;lat;lon;timestamp;P1;durP1;ratioP1;P2;durP2;ratioP2
45522;SDS011;31254;51.680;5.394;2023-07-13T00:02:18;7.53;;;1.60;;
45522;SDS011;31254;51.680;5.394;2023-07-13T00:04:45;4.10;;;1.20;;
45522;SDS011;31254;51.680;5.394;2023-07-13T00:07:12;4.80;;;1.40;;
45522;SDS011;31254;51.680;5.394;2023-07-13T00:09:40;9.13;;;1.90;;
45522;SDS011;31254;51.680;5.394;2023-07-13T00:15:18;5.90;;;1.70;;
45522;SDS011;31254;51.680;5.394;2023-07-13T00:17:49;4.30;;;1.65;;
45522;SDS011;31254;51.680;5.394;2023-07-13T00:20:23;5.78;;;1.30;;
45522;SDS011;31254;51.680;5.394;2023-07-13T00:22:54;9.10;;;1.80;;
45522;SDS011;31254;51.680;5.394;2023-07-13T00:25:21;8.25;;;1.90;;
45522;SDS011;31254;51.680;5.394;2023-07-13T00:27:50;7.18;;;2.50;;
45522;SDS011;31254;51.680;5.394;2023-07-13T00:30:17;5.55;;;1.70;;
45522;SDS011;31254;51.680;5.394;2023-07-13T00:32:44;8.13;;;1.60;;
45522;SDS011;31254;51.680;5.394;2023-07-13T00:35:13;4.32;;;1.88;;
45522;SDS011;31254;51.680;5.394;2023-07-13T00:37:40;7.30;;;1.85;;
45522;SDS011;31254;51.680;5.394;2023-07-13T00:40:10;6.70;;;1.73;;
45522;SDS011;31254;51.680;5.394;2023-07-13T00:42:39;5.95;;;1.75;;
45522;SDS011;31254;51.680;5.394;2023-07-13T00:46:07;4.88;;;1.65;;
45522;SDS011;31254;51.680;5.394;2023-07-13T00:47:53;5.00;;;1.95;;
45522;SDS011;31254;51.680;5.394;2023-07-13T00:50:23;9.52;;;3.30;;
45522;SDS011;31254;51.680;5.394;2023-07-13T00:52:53;6.85;;;1.65;;
45522;SDS011;31254;51.680;5.394;2023-07-13T00:55:21;7.93;;;2.20;;
45522;SDS011;31254;51.680;5.394;2023-07-13T00:57:48;7.40;;;2.28;;
45522;SDS011;31254;51.680;5.394;2023-07-13T01:00:15;7.25;;;1.50;;
45522;SDS011;31254;51.680;5.394;2023-07-13T01:02:44;8.75;;;1.65;;
45522;SDS011;31254;51.680;5.394;2023-07-13T01:05:13;6.20;;;2.10;;
45522;SDS011;31254;51.680;5.394;2023-07-13T01:07:45;4.93;;;1.60;;
45522;SDS011;31254;51.680;5.394;2023-07-13T01:10:16;10.48;;;1.85;;
45522;SDS011;31254;51.680;5.394;2023-07-13T01:12:47;4.22;;;2.20;;
45522;SDS011;31254;51.680;5.394;2023-07-13T01:17:59;6.97;;;1.73;;
45522;SDS011;31254;51.680;5.394;2023-07-13T01:20:29;6.45;;;1.88;;
45522;SDS011;31254;51.680;5.394;2023-07-13T01:22:56;8.43;;;2.20;;
45522;SDS011;31254;51.680;5.394;2023-07-13T01:25:26;9.57;;;2.15;;
45522;SDS011;31254;51.680;5.394;2023-07-13T01:27:53;8.70;;;1.80;;
45522;SDS011;31254;51.680;5.394;2023-07-13T01:30:26;8.43;;;2.03;;
45522;SDS011;31254;51.680;5.394;2023-07-13T01:32:53;8.45;;;2.03;;
45522;SDS011;31254;51.680;5.394;2023-07-13T01:35:20;7.15;;;1.65;;
45522;SDS011;31254;51.680;5.394;2023-07-13T01:37:47;5.72;;;1.90;;
45522;SDS011;31254;51.680;5.394;2023-07-13T01:40:16;4.68;;;1.75;;
45522;SDS011;31254;51.680;5.394;2023-07-13T01:42:43;9.50;;;1.75;;
45522;SDS011;31254;51.680;5.394;2023-07-13T01:45:10;5.38;;;1.65;;
45522;SDS011;31254;51.680;5.394;2023-07-13T01:47:39;10.30;;;1.60;;
45522;SDS011;31254;51.680;5.394;2023-07-13T01:50:11;8.80;;;1.80;;
45522;SDS011;31254;51.680;5.394;2023-07-13T01:52:40;8.32;;;1.70;;
45522;SDS011;31254;51.680;5.394;2023-07-13T01:55:09;10.15;;;2.42;;
45522;SDS011;31254;51.680;5.394;2023-07-13T01:57:36;8.68;;;2.13;;
45522;SDS011;31254;51.680;5.394;2023-07-13T02:00:04;13.65;;;2.28;;
45522;SDS011;31254;51.680;5.394;2023-07-13T02:02:32;7.25;;;1.85;;
45522;SDS011;31254;51.680;5.394;2023-07-13T02:04:59;13.95;;;2.33;;
45522;SDS011;31254;51.680;5.394;2023-07-13T02:07:26;12.15;;;2.45;;
45522;SDS011;31254;51.680;5.394;2023-07-13T02:09:52;6.57;;;1.85;;
45522;SDS011;31254;51.680;5.394;2023-07-13T02:12:20;9.80;;;2.22;;
45522;SDS011;31254;51.680;5.394;2023-07-13T02:14:46;7.57;;;1.80;;
45522;SDS011;31254;51.680;5.394;2023-07-13T02:17:13;9.35;;;2.08;;
45522;SDS011;31254;51.680;5.394;2023-07-13T02:19:43;8.07;;;2.08;;
45522;SDS011;31254;51.680;5.394;2023-07-13T02:22:12;4.97;;;1.45;;
45522;SDS011;31254;51.680;5.394;2023-07-13T02:24:39;6.18;;;1.90;;
45522;SDS011;31254;51.680;5.394;2023-07-13T02:27:06;10.32;;;2.10;;
45522;SDS011;31254;51.680;5.394;2023-07-13T02:29:33;5.97;;;2.10;;
45522;SDS011;31254;51.680;5.394;2023-07-13T02:31:59;9.95;;;2.47;;
45522;SDS011;31254;51.680;5.394;2023-07-13T02:34:26;8.98;;;2.40;;
45522;SDS011;31254;51.680;5.394;2023-07-13T02:36:53;8.63;;;2.00;;
45522;SDS011;31254;51.680;5.394;2023-07-13T02:39:19;5.90;;;2.75;;
45522;SDS011;31254;51.680;5.394;2023-07-13T02:41:46;7.88;;;2.00;;
45522;SDS011;31254;51.680;5.394;2023-07-13T02:44:13;9.88;;;2.50;;
45522;SDS011;31254;51.680;5.394;2023-07-13T02:46:41;7.43;;;2.47;;
45522;SDS011;31254;51.680;5.394;2023-07-13T02:49:08;8.48;;;2.35;;
45522;SDS011;31254;51.680;5.394;2023-07-13T02:51:34;7.57;;;2.67;;
45522;SDS011;31254;51.680;5.394;2023-07-13T02:54:02;9.50;;;2.00;;
45522;SDS011;31254;51.680;5.394;2023-07-13T02:56:30;9.38;;;2.08;;
45522;SDS011;31254;51.680;5.394;2023-07-13T02:59:00;7.60;;;2.67;;
45522;SDS011;31254;51.680;5.394;2023-07-13T03:01:27;4.10;;;1.60;;
45522;SDS011;31254;51.680;5.394;2023-07-13T03:03:54;8.77;;;2.53;;
45522;SDS011;31254;51.680;5.394;2023-07-13T03:06:24;7.93;;;2.30;;
45522;SDS011;31254;51.680;5.394;2023-07-13T03:08:51;10.88;;;2.22;;
45522;SDS011;31254;51.680;5.394;2023-07-13T03:11:18;8.90;;;1.85;;
45522;SDS011;31254;51.680;5.394;2023-07-13T03:13:48;9.48;;;2.72;;
45522;SDS011;31254;51.680;5.394;2023-07-13T03:16:15;9.13;;;2.28;;
45522;SDS011;31254;51.680;5.394;2023-07-13T03:18:45;8.13;;;2.08;;
45522;SDS011;31254;51.680;5.394;2023-07-13T03:21:13;6.70;;;1.70;;
45522;SDS011;31254;51.680;5.394;2023-07-13T03:23:39;8.25;;;2.25;;
45522;SDS011;31254;51.680;5.394;2023-07-13T03:26:07;6.85;;;2.15;;
45522;SDS011;31254;51.680;5.394;2023-07-13T03:28:40;13.40;;;2.33;;
45522;SDS011;31254;51.680;5.394;2023-07-13T03:31:11;10.90;;;2.35;;
45522;SDS011;31254;51.680;5.394;2023-07-13T03:33:42;10.48;;;2.35;;
45522;SDS011;31254;51.680;5.394;2023-07-13T03:36:12;12.45;;;2.25;;
45522;SDS011;31254;51.680;5.394;2023-07-13T03:38:51;11.98;;;2.63;;
45522;SDS011;31254;51.680;5.394;2023-07-13T03:41:22;11.57;;;2.67;;
45522;SDS011;31254;51.680;5.394;2023-07-13T03:43:52;13.57;;;2.88;;
45522;SDS011;31254;51.680;5.394;2023-07-13T03:46:21;6.63;;;2.40;;
45522;SDS011;31254;51.680;5.394;2023-07-13T03:48:48;10.77;;;2.92;;
45522;SDS011;31254;51.680;5.394;2023-07-13T03:51:16;11.50;;;2.90;;
45522;SDS011;31254;51.680;5.394;2023-07-13T03:53:44;12.75;;;2.60;;
45522;SDS011;31254;51.680;5.394;2023-07-13T03:56:12;12.30;;;2.92;;
45522;SDS011;31254;51.680;5.394;2023-07-13T03:58:42;7.85;;;2.33;;
45522;SDS011;31254;51.680;5.394;2023-07-13T04:01:12;12.32;;;2.60;;
45522;SDS011;31254;51.680;5.394;2023-07-13T04:03:40;7.97;;;2.80;;
45522;SDS011;31254;51.680;5.394;2023-07-13T04:06:12;9.02;;;2.65;;
45522;SDS011;31254;51.680;5.394;2023-07-13T04:08:42;7.07;;;2.72;;
45522;SDS011;31254;51.680;5.394;2023-07-13T04:11:08;10.45;;;2.63;;
45522;SDS011;31254;51.680;5.394;2023-07-13T04:13:35;10.80;;;2.53;;
45522;SDS011;31254;51.680;5.394;2023-07-13T04:16:02;9.50;;;2.53;;
45522;SDS011;31254;51.680;5.394;2023-07-13T04:18:29;12.77;;;2.53;;
45522;SDS011;31254;51.680;5.394;2023-07-13T04:20:56;8.63;;;2.80;;
45522;SDS011;31254;51.680;5.394;2023-07-13T04:23:25;10.93;;;2.83;;
45522;SDS011;31254;51.680;5.394;2023-07-13T04:25:52;10.63;;;2.67;;
45522;SDS011;31254;51.680;5.394;2023-07-13T04:28:20;9.20;;;2.38;;
45522;SDS011;31254;51.680;5.394;2023-07-13T04:30:48;10.40;;;3.22;;
45522;SDS011;31254;51.680;5.394;2023-07-13T04:33:15;6.07;;;2.33;;
45522;SDS011;31254;51.680;5.394;2023-07-13T04:35:43;10.70;;;2.63;;
45522;SDS011;31254;51.680;5.394;2023-07-13T04:38:13;14.20;;;2.65;;
45522;SDS011;31254;51.680;5.394;2023-07-13T04:40:44;10.75;;;2.58;;
45522;SDS011;31254;51.680;5.394;2023-07-13T04:43:12;10.02;;;3.08;;
45522;SDS011;31254;51.680;5.394;2023-07-13T04:45:40;12.52;;;3.00;;
45522;SDS011;31254;51.680;5.394;2023-07-13T04:48:07;8.85;;;2.85;;
45522;SDS011;31254;51.680;5.394;2023-07-13T04:50:37;15.88;;;2.92;;
45522;SDS011;31254;51.680;5.394;2023-07-13T04:53:07;9.43;;;2.55;;
45522;SDS011;31254;51.680;5.394;2023-07-13T04:55:34;10.05;;;3.30;;
45522;SDS011;31254;51.680;5.394;2023-07-13T04:58:01;11.20;;;3.45;;
45522;SDS011;31254;51.680;5.394;2023-07-13T05:00:29;13.32;;;3.55;;
45522;SDS011;31254;51.680;5.394;2023-07-13T05:02:56;12.38;;;3.78;;
45522;SDS011;31254;51.680;5.394;2023-07-13T05:05:25;15.40;;;4.03;;
45522;SDS011;31254;51.680;5.394;2023-07-13T05:07:54;14.98;;;4.20;;
45522;SDS011;31254;51.680;5.394;2023-07-13T05:10:26;11.00;;;4.20;;
45522;SDS011;31254;51.680;5.394;2023-07-13T05:12:52;12.45;;;3.63;;
45522;SDS011;31254;51.680;5.394;2023-07-13T05:15:22;14.82;;;4.20;;
45522;SDS011;31254;51.680;5.394;2023-07-13T05:17:49;15.95;;;4.85;;
45522;SDS011;31254;51.680;5.394;2023-07-13T05:20:19;11.40;;;4.20;;
45522;SDS011;31254;51.680;5.394;2023-07-13T05:22:46;13.25;;;5.00;;
45522;SDS011;31254;51.680;5.394;2023-07-13T05:25:13;10.80;;;4.65;;
45522;SDS011;31254;51.680;5.394;2023-07-13T05:27:40;14.45;;;4.90;;
45522;SDS011;31254;51.680;5.394;2023-07-13T05:30:07;14.32;;;4.60;;
45522;SDS011;31254;51.680;5.394;2023-07-13T05:32:38;21.45;;;5.72;;
45522;SDS011;31254;51.680;5.394;2023-07-13T05:35:05;17.17;;;5.72;;
45522;SDS011;31254;51.680;5.394;2023-07-13T05:37:32;14.60;;;5.20;;
45522;SDS011;31254;51.680;5.394;2023-07-13T05:39:59;16.38;;;5.13;;
45522;SDS011;31254;51.680;5.394;2023-07-13T05:42:26;15.80;;;5.03;;
45522;SDS011;31254;51.680;5.394;2023-07-13T05:44:55;16.27;;;6.07;;
45522;SDS011;31254;51.680;5.394;2023-07-13T05:47:24;14.25;;;5.72;;
45522;SDS011;31254;51.680;5.394;2023-07-13T05:49:51;18.13;;;6.13;;
45522;SDS011;31254;51.680;5.394;2023-07-13T05:52:18;16.35;;;6.53;;
45522;SDS011;31254;51.680;5.394;2023-07-13T05:54:47;16.65;;;6.28;;
45522;SDS011;31254;51.680;5.394;2023-07-13T05:57:21;18.60;;;6.65;;
45522;SDS011;31254;51.680;5.394;2023-07-13T05:59:48;19.58;;;7.05;;
45522;SDS011;31254;51.680;5.394;2023-07-13T06:02:15;18.55;;;7.40;;
45522;SDS011;31254;51.680;5.394;2023-07-13T06:04:41;24.33;;;7.47;;
45522;SDS011;31254;51.680;5.394;2023-07-13T06:07:08;21.25;;;8.35;;
45522;SDS011;31254;51.680;5.394;2023-07-13T06:09:39;23.38;;;7.35;;
45522;SDS011;31254;51.680;5.394;2023-07-13T06:12:08;22.05;;;8.27;;
45522;SDS011;31254;51.680;5.394;2023-07-13T06:14:35;21.60;;;8.05;;
45522;SDS011;31254;51.680;5.394;2023-07-13T06:17:02;21.77;;;8.02;;
45522;SDS011;31254;51.680;5.394;2023-07-13T06:19:29;25.08;;;8.32;;
45522;SDS011;31254;51.680;5.394;2023-07-13T06:21:55;25.95;;;9.00;;
45522;SDS011;31254;51.680;5.394;2023-07-13T06:24:23;19.73;;;8.10;;
45522;SDS011;31254;51.680;5.394;2023-07-13T06:26:49;19.13;;;8.63;;
45522;SDS011;31254;51.680;5.394;2023-07-13T06:29:16;29.67;;;8.85;;
45522;SDS011;31254;51.680;5.394;2023-07-13T06:31:43;23.23;;;10.32;;
45522;SDS011;31254;51.680;5.394;2023-07-13T06:34:09;20.60;;;9.10;;
45522;SDS011;31254;51.680;5.394;2023-07-13T06:36:36;25.30;;;9.00;;
45522;SDS011;31254;51.680;5.394;2023-07-13T06:39:06;20.90;;;9.32;;
45522;SDS011;31254;51.680;5.394;2023-07-13T06:41:33;21.25;;;9.98;;
45522;SDS011;31254;51.680;5.394;2023-07-13T06:44:00;25.33;;;10.32;;
45522;SDS011;31254;51.680;5.394;2023-07-13T06:46:28;21.05;;;9.13;;
45522;SDS011;31254;51.680;5.394;2023-07-13T06:48:55;21.52;;;8.80;;
45522;SDS011;31254;51.680;5.394;2023-07-13T06:51:22;22.83;;;8.82;;
45522;SDS011;31254;51.680;5.394;2023-07-13T06:53:52;21.55;;;9.27;;
45522;SDS011;31254;51.680;5.394;2023-07-13T06:56:18;20.25;;;9.55;;
45522;SDS011;31254;51.680;5.394;2023-07-13T06:58:45;21.00;;;8.75;;
45522;SDS011;31254;51.680;5.394;2023-07-13T07:01:12;20.95;;;9.27;;
45522;SDS011;31254;51.680;5.394;2023-07-13T07:03:39;23.75;;;9.43;;
45522;SDS011;31254;51.680;5.394;2023-07-13T07:06:18;20.00;;;8.77;;
45522;SDS011;31254;51.680;5.394;2023-07-13T07:08:47;22.75;;;9.48;;
45522;SDS011;31254;51.680;5.394;2023-07-13T07:11:20;20.65;;;8.95;;
45522;SDS011;31254;51.680;5.394;2023-07-13T07:13:49;25.33;;;9.02;;
45522;SDS011;31254;51.680;5.394;2023-07-13T07:16:16;24.42;;;8.95;;
45522;SDS011;31254;51.680;5.394;2023-07-13T07:18:44;21.63;;;8.70;;
45522;SDS011;31254;51.680;5.394;2023-07-13T07:21:11;17.73;;;8.40;;
45522;SDS011;31254;51.680;5.394;2023-07-13T07:23:38;16.90;;;8.57;;
45522;SDS011;31254;51.680;5.394;2023-07-13T07:26:08;20.20;;;8.68;;
45522;SDS011;31254;51.680;5.394;2023-07-13T07:28:36;22.23;;;9.13;;
45522;SDS011;31254;51.680;5.394;2023-07-13T07:31:06;17.98;;;8.13;;
45522;SDS011;31254;51.680;5.394;2023-07-13T07:33:35;22.67;;;8.65;;
45522;SDS011;31254;51.680;5.394;2023-07-13T07:36:02;20.67;;;7.97;;
45522;SDS011;31254;51.680;5.394;2023-07-13T07:38:32;17.50;;;7.65;;
45522;SDS011;31254;51.680;5.394;2023-07-13T07:41:00;19.60;;;8.13;;
45522;SDS011;31254;51.680;5.394;2023-07-13T07:43:35;22.35;;;8.25;;
45522;SDS011;31254;51.680;5.394;2023-07-13T07:46:02;22.25;;;7.82;;
45522;SDS011;31254;51.680;5.394;2023-07-13T07:48:32;16.08;;;7.35;;
45522;SDS011;31254;51.680;5.394;2023-07-13T07:51:01;19.25;;;7.43;;
45522;SDS011;31254;51.680;5.394;2023-07-13T07:53:32;15.50;;;8.02;;
45522;SDS011;31254;51.680;5.394;2023-07-13T07:55:59;18.10;;;8.35;;
45522;SDS011;31254;51.680;5.394;2023-07-13T07:58:46;12.55;;;6.97;;
45522;SDS011;31254;51.680;5.394;2023-07-13T08:01:16;16.63;;;7.95;;
45522;SDS011;31254;51.680;5.394;2023-07-13T08:03:45;17.85;;;6.97;;
45522;SDS011;31254;51.680;5.394;2023-07-13T08:06:15;13.13;;;6.80;;
45522;SDS011;31254;51.680;5.394;2023-07-13T08:09:04;16.92;;;6.93;;
45522;SDS011;31254;51.680;5.394;2023-07-13T08:11:32;13.70;;;5.82;;
45522;SDS011;31254;51.680;5.394;2023-07-13T08:14:01;13.48;;;6.18;;
45522;SDS011;31254;51.680;5.394;2023-07-13T08:16:30;14.60;;;6.40;;
45522;SDS011;31254;51.680;5.394;2023-07-13T08:18:59;12.55;;;6.32;;
45522;SDS011;31254;51.680;5.394;2023-07-13T08:21:30;11.90;;;5.95;;
45522;SDS011;31254;51.680;5.394;2023-07-13T08:23:59;12.73;;;5.70;;
45522;SDS011;31254;51.680;5.394;2023-07-13T08:26:26;15.73;;;5.88;;
45522;SDS011;31254;51.680;5.394;2023-07-13T08:28:53;15.77;;;6.05;;
45522;SDS011;31254;51.680;5.394;2023-07-13T08:31:22;14.73;;;5.70;;
45522;SDS011;31254;51.680;5.394;2023-07-13T08:33:49;19.30;;;6.10;;
45522;SDS011;31254;51.680;5.394;2023-07-13T08:36:16;18.08;;;5.97;;
45522;SDS011;31254;51.680;5.394;2023-07-13T08:38:42;12.60;;;5.47;;
45522;SDS011;31254;51.680;5.394;2023-07-13T08:41:13;16.35;;;6.07;;
45522;SDS011;31254;51.680;5.394;2023-07-13T08:43:42;11.55;;;5.75;;
45522;SDS011;31254;51.680;5.394;2023-07-13T08:46:16;13.60;;;5.30;;
45522;SDS011;31254;51.680;5.394;2023-07-13T08:48:49;16.83;;;5.93;;
45522;SDS011;31254;51.680;5.394;2023-07-13T08:54:08;11.73;;;4.93;;
45522;SDS011;31254;51.680;5.394;2023-07-13T08:56:45;12.93;;;4.82;;
45522;SDS011;31254;51.680;5.394;2023-07-13T08:59:16;11.25;;;4.78;;
45522;SDS011;31254;51.680;5.394;2023-07-13T09:04:37;7.47;;;4.07;;
45522;SDS011;31254;51.680;5.394;2023-07-13T09:15:37;15.18;;;4.70;;
45522;SDS011;31254;51.680;5.394;2023-07-13T09:21:02;12.35;;;4.25;;
45522;SDS011;31254;51.680;5.394;2023-07-13T09:23:31;11.98;;;4.55;;
45522;SDS011;31254;51.680;5.394;2023-07-13T09:26:23;11.65;;;4.35;;
45522;SDS011;31254;51.680;5.394;2023-07-13T09:29:56;12.27;;;4.55;;
45522;SDS011;31254;51.680;5.394;2023-07-13T09:31:55;10.77;;;4.10;;
45522;SDS011;31254;51.680;5.394;2023-07-13T09:34:27;11.10;;;4.35;;
45522;SDS011;31254;51.680;5.394;2023-07-13T09:36:57;10.93;;;4.18;;
45522;SDS011;31254;51.680;5.394;2023-07-13T09:39:28;10.35;;;4.18;;
45522;SDS011;31254;51.680;5.394;2023-07-13T09:44:34;7.78;;;4.43;;
45522;SDS011;31254;51.680;5.394;2023-07-13T09:47:02;9.50;;;4.20;;
45522;SDS011;31254;51.680;5.394;2023-07-13T09:49:36;8.65;;;4.43;;
45522;SDS011;31254;51.680;5.394;2023-07-13T09:52:05;10.70;;;4.68;;
45522;SDS011;31254;51.680;5.394;2023-07-13T09:54:36;8.80;;;4.45;;
45522;SDS011;31254;51.680;5.394;2023-07-13T09:57:12;7.20;;;4.55;;
45522;SDS011;31254;51.680;5.394;2023-07-13T09:59:45;11.90;;;4.60;;
45522;SDS011;31254;51.680;5.394;2023-07-13T10:02:30;11.32;;;4.65;;
45522;SDS011;31254;51.680;5.394;2023-07-13T10:05:11;11.43;;;5.03;;
45522;SDS011;31254;51.680;5.394;2023-07-13T10:07:43;7.65;;;4.70;;
45522;SDS011;31254;51.680;5.394;2023-07-13T10:10:18;11.73;;;4.78;;
45522;SDS011;31254;51.680;5.394;2023-07-13T10:12:47;7.93;;;3.60;;
45522;SDS011;31254;51.680;5.394;2023-07-13T10:15:15;11.95;;;4.32;;
45522;SDS011;31254;51.680;5.394;2023-07-13T10:17:50;11.63;;;4.00;;
45522;SDS011;31254;51.680;5.394;2023-07-13T10:20:22;9.77;;;4.28;;
45522;SDS011;31254;51.680;5.394;2023-07-13T10:22:53;12.73;;;4.60;;
45522;SDS011;31254;51.680;5.394;2023-07-13T10:25:27;9.25;;;4.60;;
45522;SDS011;31254;51.680;5.394;2023-07-13T10:31:09;11.60;;;4.10;;
45522;SDS011;31254;51.680;5.394;2023-07-13T10:33:40;9.85;;;4.35;;
45522;SDS011;31254;51.680;5.394;2023-07-13T10:36:15;11.70;;;3.88;;
45522;SDS011;31254;51.680;5.394;2023-07-13T10:38:49;10.05;;;3.92;;
45522;SDS011;31254;51.680;5.394;2023-07-13T10:41:19;7.65;;;3.90;;
45522;SDS011;31254;51.680;5.394;2023-07-13T10:43:51;7.35;;;3.55;;
45522;SDS011;31254;51.680;5.394;2023-07-13T10:46:25;12.25;;;3.60;;
45522;SDS011;31254;51.680;5.394;2023-07-13T10:48:58;9.25;;;3.72;;
45522;SDS011;31254;51.680;5.394;2023-07-13T10:51:33;9.02;;;3.65;;
45522;SDS011;31254;51.680;5.394;2023-07-13T10:56:45;10.98;;;2.95;;
45522;SDS011;31254;51.680;5.394;2023-07-13T10:59:17;12.32;;;2.80;;
45522;SDS011;31254;51.680;5.394;2023-07-13T11:04:54;7.70;;;3.33;;
45522;SDS011;31254;51.680;5.394;2023-07-13T11:07:25;8.77;;;4.00;;
45522;SDS011;31254;51.680;5.394;2023-07-13T11:09:57;5.15;;;2.92;;
45522;SDS011;31254;51.680;5.394;2023-07-13T11:12:28;7.13;;;2.65;;
45522;SDS011;31254;51.680;5.394;2023-07-13T11:15:15;9.65;;;3.53;;
45522;SDS011;31254;51.680;5.394;2023-07-13T11:17:55;10.13;;;3.30;;
45522;SDS011;31254;51.680;5.394;2023-07-13T11:20:37;7.78;;;2.75;;
45522;SDS011;31254;51.680;5.394;2023-07-13T11:23:16;10.27;;;2.92;;
45522;SDS011;31254;51.680;5.394;2023-07-13T11:25:46;7.05;;;2.95;;
45522;SDS011;31254;51.680;5.394;2023-07-13T11:28:17;6.95;;;2.45;;
45522;SDS011;31254;51.680;5.394;2023-07-13T11:33:24;10.30;;;2.85;;
45522;SDS011;31254;51.680;5.394;2023-07-13T11:36:05;7.85;;;2.58;;
45522;SDS011;31254;51.680;5.394;2023-07-13T11:38:45;8.38;;;3.47;;
45522;SDS011;31254;51.680;5.394;2023-07-13T11:44:06;5.85;;;2.60;;
45522;SDS011;31254;51.680;5.394;2023-07-13T11:46:46;6.40;;;2.25;;
45522;SDS011;31254;51.680;5.394;2023-07-13T11:49:19;7.43;;;2.30;;
45522;SDS011;31254;51.680;5.394;2023-07-13T11:51:50;6.75;;;2.53;;
45522;SDS011;31254;51.680;5.394;2023-07-13T11:54:31;6.78;;;2.70;;
45522;SDS011;31254;51.680;5.394;2023-07-13T11:59:45;6.10;;;1.83;;
45522;SDS011;31254;51.680;5.394;2023-07-13T12:02:31;7.85;;;2.50;;
45522;SDS011;31254;51.680;5.394;2023-07-13T12:05:00;6.13;;;2.42;;
45522;SDS011;31254;51.680;5.394;2023-07-13T12:07:33;5.93;;;1.50;;
45522;SDS011;31254;51.680;5.394;2023-07-13T12:10:03;6.43;;;1.95;;
45522;SDS011;31254;51.680;5.394;2023-07-13T12:12:53;2.65;;;1.50;;
45522;SDS011;31254;51.680;5.394;2023-07-13T12:15:22;5.72;;;1.75;;
45522;SDS011;31254;51.680;5.394;2023-07-13T12:17:54;7.28;;;1.75;;
45522;SDS011;31254;51.680;5.394;2023-07-13T12:20:26;5.22;;;2.05;;
45522;SDS011;31254;51.680;5.394;2023-07-13T12:22:59;3.63;;;1.35;;
45522;SDS011;31254;51.680;5.394;2023-07-13T12:25:32;5.65;;;1.45;;
45522;SDS011;31254;51.680;5.394;2023-07-13T12:27:59;5.85;;;1.40;;
45522;SDS011;31254;51.680;5.394;2023-07-13T12:30:47;3.15;;;1.55;;
45522;SDS011;31254;51.680;5.394;2023-07-13T12:33:31;2.80;;;1.50;;
45522;SDS011;31254;51.680;5.394;2023-07-13T12:36:03;5.07;;;1.50;;
45522;SDS011;31254;51.680;5.394;2023-07-13T12:38:32;2.67;;;1.52;;
45522;SDS011;31254;51.680;5.394;2023-07-13T12:40:59;4.93;;;1.55;;
45522;SDS011;31254;51.680;5.394;2023-07-13T12:43:28;5.13;;;1.50;;
45522;SDS011;31254;51.680;5.394;2023-07-13T12:46:19;3.22;;;1.33;;
45522;SDS011;31254;51.680;5.394;2023-07-13T12:48:50;5.57;;;1.60;;
45522;SDS011;31254;51.680;5.394;2023-07-13T12:51:33;5.22;;;1.40;;
45522;SDS011;31254;51.680;5.394;2023-07-13T12:54:17;5.45;;;1.40;;
45522;SDS011;31254;51.680;5.394;2023-07-13T12:56:48;3.70;;;1.73;;
45522;SDS011;31254;51.680;5.394;2023-07-13T12:59:19;2.50;;;1.33;;
45522;SDS011;31254;51.680;5.394;2023-07-13T13:01:48;5.40;;;1.52;;
45522;SDS011;31254;51.680;5.394;2023-07-13T13:04:16;3.08;;;1.55;;
45522;SDS011;31254;51.680;5.394;2023-07-13T13:06:49;2.65;;;1.30;;
45522;SDS011;31254;51.680;5.394;2023-07-13T13:09:28;4.07;;;1.67;;
45522;SDS011;31254;51.680;5.394;2023-07-13T13:11:55;4.95;;;1.40;;
45522;SDS011;31254;51.680;5.394;2023-07-13T13:14:22;3.85;;;1.42;;
45522;SDS011;31254;51.680;5.394;2023-07-13T13:16:49;3.13;;;1.30;;
45522;SDS011;31254;51.680;5.394;2023-07-13T13:19:25;3.28;;;1.30;;
45522;SDS011;31254;51.680;5.394;2023-07-13T13:21:55;4.00;;;1.48;;
45522;SDS011;31254;51.680;5.394;2023-07-13T13:24:27;4.47;;;1.52;;
45522;SDS011;31254;51.680;5.394;2023-07-13T13:26:56;3.75;;;1.88;;
45522;SDS011;31254;51.680;5.394;2023-07-13T13:29:24;6.78;;;1.38;;
45522;SDS011;31254;51.680;5.394;2023-07-13T13:31:55;3.70;;;1.58;;
45522;SDS011;31254;51.680;5.394;2023-07-13T13:34:29;3.42;;;1.45;;
45522;SDS011;31254;51.680;5.394;2023-07-13T13:36:56;4.30;;;1.75;;
45522;SDS011;31254;51.680;5.394;2023-07-13T13:39:33;4.68;;;1.50;;
45522;SDS011;31254;51.680;5.394;2023-07-13T13:42:03;9.07;;;1.67;;
45522;SDS011;31254;51.680;5.394;2023-07-13T13:44:32;4.75;;;1.80;;
45522;SDS011;31254;51.680;5.394;2023-07-13T13:47:00;4.70;;;1.65;;
45522;SDS011;31254;51.680;5.394;2023-07-13T13:49:30;6.30;;;2.00;;
45522;SDS011;31254;51.680;5.394;2023-07-13T13:51:58;5.22;;;1.48;;
45522;SDS011;31254;51.680;5.394;2023-07-13T13:54:25;8.38;;;1.75;;
45522;SDS011;31254;51.680;5.394;2023-07-13T13:56:53;4.82;;;1.52;;
45522;SDS011;31254;51.680;5.394;2023-07-13T13:59:19;4.05;;;1.60;;
45522;SDS011;31254;51.680;5.394;2023-07-13T14:01:47;2.60;;;1.40;;
45522;SDS011;31254;51.680;5.394;2023-07-13T14:04:19;6.63;;;1.65;;
45522;SDS011;31254;51.680;5.394;2023-07-13T14:06:48;5.13;;;1.77;;
45522;SDS011;31254;51.680;5.394;2023-07-13T14:09:16;5.25;;;1.88;;
45522;SDS011;31254;51.680;5.394;2023-07-13T14:11:48;5.35;;;1.65;;
45522;SDS011;31254;51.680;5.394;2023-07-13T14:14:20;3.78;;;1.75;;
45522;SDS011;31254;51.680;5.394;2023-07-13T14:16:49;6.00;;;1.83;;
45522;SDS011;31254;51.680;5.394;2023-07-13T14:19:20;6.07;;;1.42;;
45522;SDS011;31254;51.680;5.394;2023-07-13T14:21:47;5.55;;;1.52;;
45522;SDS011;31254;51.680;5.394;2023-07-13T14:24:16;6.18;;;2.00;;
45522;SDS011;31254;51.680;5.394;2023-07-13T14:26:47;4.07;;;1.63;;
45522;SDS011;31254;51.680;5.394;2023-07-13T14:29:15;4.65;;;1.40;;
45522;SDS011;31254;51.680;5.394;2023-07-13T14:31:52;6.47;;;1.60;;
45522;SDS011;31254;51.680;5.394;2023-07-13T14:34:22;4.40;;;1.65;;
45522;SDS011;31254;51.680;5.394;2023-07-13T14:36:49;3.70;;;1.33;;
45522;SDS011;31254;51.680;5.394;2023-07-13T14:39:21;6.25;;;1.60;;
45522;SDS011;31254;51.680;5.394;2023-07-13T14:41:50;6.10;;;1.65;;
45522;SDS011;31254;51.680;5.394;2023-07-13T14:44:28;4.15;;;1.50;;
45522;SDS011;31254;51.680;5.394;2023-07-13T14:46:57;5.72;;;1.52;;
45522;SDS011;31254;51.680;5.394;2023-07-13T14:49:36;4.70;;;1.70;;
45522;SDS011;31254;51.680;5.394;2023-07-13T14:52:15;5.78;;;2.00;;
45522;SDS011;31254;51.680;5.394;2023-07-13T14:54:44;4.80;;;1.23;;
45522;SDS011;31254;51.680;5.394;2023-07-13T14:57:13;4.43;;;1.95;;
45522;SDS011;31254;51.680;5.394;2023-07-13T14:59:41;2.83;;;1.30;;
45522;SDS011;31254;51.680;5.394;2023-07-13T15:04:52;5.32;;;1.42;;
45522;SDS011;31254;51.680;5.394;2023-07-13T15:07:19;5.50;;;1.95;;
45522;SDS011;31254;51.680;5.394;2023-07-13T15:09:47;3.97;;;1.70;;
45522;SDS011;31254;51.680;5.394;2023-07-13T15:12:14;3.72;;;1.50;;
45522;SDS011;31254;51.680;5.394;2023-07-13T15:14:43;2.70;;;1.35;;
45522;SDS011;31254;51.680;5.394;2023-07-13T15:20:10;3.92;;;1.50;;
45522;SDS011;31254;51.680;5.394;2023-07-13T15:22:39;4.63;;;1.42;;
45522;SDS011;31254;51.680;5.394;2023-07-13T15:25:10;5.20;;;1.42;;
45522;SDS011;31254;51.680;5.394;2023-07-13T15:27:41;4.50;;;1.48;;
45522;SDS011;31254;51.680;5.394;2023-07-13T15:30:07;2.80;;;1.35;;
45522;SDS011;31254;51.680;5.394;2023-07-13T15:32:35;3.78;;;1.40;;
45522;SDS011;31254;51.680;5.394;2023-07-13T15:35:03;1.90;;;1.35;;
45522;SDS011;31254;51.680;5.394;2023-07-13T15:37:31;4.47;;;1.40;;
45522;SDS011;31254;51.680;5.394;2023-07-13T15:40:12;3.30;;;1.60;;
45522;SDS011;31254;51.680;5.394;2023-07-13T15:42:40;6.15;;;1.63;;
45522;SDS011;31254;51.680;5.394;2023-07-13T15:45:17;5.75;;;1.50;;
45522;SDS011;31254;51.680;5.394;2023-07-13T15:47:48;5.10;;;1.60;;